sensor_id;sensor_type;location;lat;lon;timestamp;P1;durP1;ratioP1;P2;durP2;ratioP2
42084;SDS011;27746;52.228;20.890;2023-02-08T00:02:14;35.42;;;18.30;;
42084;SDS011;27746;52.228;20.890;2023-02-08T00:04:41;39.10;;;19.38;;
42084;SDS011;27746;52.228;20.890;2023-02-08T00:07:08;39.75;;;18.02;;
42084;SDS011;27746;52.228;20.890;2023-02-08T00:09:35;31.83;;;16.45;;
42084;SDS011;27746;52.228;20.890;2023-02-08T00:12:03;35.13;;;18.45;;
42084;SDS011;27746;52.228;20.890;2023-02-08T00:14:30;34.70;;;16.65;;
42084;SDS011;27746;52.228;20.890;2023-02-08T00:16:57;39.42;;;17.50;;
42084;SDS011;27746;52.228;20.890;2023-02-08T00:19:27;38.70;;;16.92;;
42084;SDS011;27746;52.228;20.890;2023-02-08T00:21:54;32.22;;;18.95;;
42084;SDS011;27746;52.228;20.890;2023-02-08T00:24:21;34.38;;;17.65;;
42084;SDS011;27746;52.228;20.890;2023-02-08T00:26:48;30.20;;;17.75;;
42084;SDS011;27746;52.228;20.890;2023-02-08T00:29:16;35.65;;;17.90;;
42084;SDS011;27746;52.228;20.890;2023-02-08T00:31:43;39.67;;;18.25;;
42084;SDS011;27746;52.228;20.890;2023-02-08T00:34:10;36.25;;;17.33;;
42084;SDS011;27746;52.228;20.890;2023-02-08T00:36:38;35.47;;;18.02;;
42084;SDS011;27746;52.228;20.890;2023-02-08T00:39:06;35.50;;;18.65;;
42084;SDS011;27746;52.228;20.890;2023-02-08T00:41:33;34.63;;;17.20;;
42084;SDS011;27746;52.228;20.890;2023-02-08T00:44:00;36.50;;;17.95;;
42084;SDS011;27746;52.228;20.890;2023-02-08T00:46:27;42.67;;;18.92;;
42084;SDS011;27746;52.228;20.890;2023-02-08T00:48:54;32.95;;;17.05;;
42084;SDS011;27746;52.228;20.890;2023-02-08T00:51:21;40.90;;;17.90;;
42084;SDS011;27746;52.228;20.890;2023-02-08T00:53:50;31.63;;;17.13;;
42084;SDS011;27746;52.228;20.890;2023-02-08T00:56:17;36.53;;;17.27;;
42084;SDS011;27746;52.228;20.890;2023-02-08T00:58:44;34.88;;;18.30;;
42084;SDS011;27746;52.228;20.890;2023-02-08T01:01:12;38.60;;;18.20;;
42084;SDS011;27746;52.228;20.890;2023-02-08T01:03:39;39.70;;;18.52;;
42084;SDS011;27746;52.228;20.890;2023-02-08T01:06:08;35.80;;;18.92;;
42084;SDS011;27746;52.228;20.890;2023-02-08T01:08:35;33.67;;;17.95;;
42084;SDS011;27746;52.228;20.890;2023-02-08T01:11:05;41.20;;;18.75;;
42084;SDS011;27746;52.228;20.890;2023-02-08T01:13:32;38.03;;;17.67;;
42084;SDS011;27746;52.228;20.890;2023-02-08T01:16:04;37.47;;;17.63;;
42084;SDS011;27746;52.228;20.890;2023-02-08T01:18:32;36.20;;;18.75;;
42084;SDS011;27746;52.228;20.890;2023-02-08T01:21:02;32.05;;;17.02;;
42084;SDS011;27746;52.228;20.890;2023-02-08T01:23:30;40.72;;;18.02;;
42084;SDS011;27746;52.228;20.890;2023-02-08T01:25:57;33.95;;;18.38;;
42084;SDS011;27746;52.228;20.890;2023-02-08T01:28:25;34.90;;;16.83;;
42084;SDS011;27746;52.228;20.890;2023-02-08T01:30:52;39.90;;;17.48;;
42084;SDS011;27746;52.228;20.890;2023-02-08T01:33:19;36.40;;;16.67;;
42084;SDS011;27746;52.228;20.890;2023-02-08T01:35:48;36.25;;;17.08;;
42084;SDS011;27746;52.228;20.890;2023-02-08T01:38:16;34.45;;;16.85;;
42084;SDS011;27746;52.228;20.890;2023-02-08T01:40:43;34.53;;;17.67;;
42084;SDS011;27746;52.228;20.890;2023-02-08T01:43:13;34.28;;;17.55;;
42084;SDS011;27746;52.228;20.890;2023-02-08T01:45:45;34.03;;;17.25;;
42084;SDS011;27746;52.228;20.890;2023-02-08T01:48:14;30.33;;;17.20;;
42084;SDS011;27746;52.228;20.890;2023-02-08T01:50:44;32.67;;;16.08;;
42084;SDS011;27746;52.228;20.890;2023-02-08T01:53:13;38.85;;;18.35;;
42084;SDS011;27746;52.228;20.890;2023-02-08T01:55:42;34.63;;;17.58;;
42084;SDS011;27746;52.228;20.890;2023-02-08T01:58:10;34.47;;;17.55;;
42084;SDS011;27746;52.228;20.890;2023-02-08T02:00:38;33.17;;;16.92;;
42084;SDS011;27746;52.228;20.890;2023-02-08T02:03:08;38.67;;;17.05;;
42084;SDS011;27746;52.228;20.890;2023-02-08T02:05:37;32.40;;;16.10;;
42084;SDS011;27746;52.228;20.890;2023-02-08T02:08:05;30.58;;;15.77;;
42084;SDS011;27746;52.228;20.890;2023-02-08T02:10:33;32.03;;;17.75;;
42084;SDS011;27746;52.228;20.890;2023-02-08T02:13:02;35.83;;;16.60;;
42084;SDS011;27746;52.228;20.890;2023-02-08T02:15:29;34.05;;;15.77;;
42084;SDS011;27746;52.228;20.890;2023-02-08T02:17:56;32.47;;;15.55;;
42084;SDS011;27746;52.228;20.890;2023-02-08T02:20:28;34.47;;;14.98;;
42084;SDS011;27746;52.228;20.890;2023-02-08T02:23:10;29.52;;;15.80;;
42084;SDS011;27746;52.228;20.890;2023-02-08T02:25:50;33.60;;;16.17;;
42084;SDS011;27746;52.228;20.890;2023-02-08T02:31:43;25.90;;;14.93;;
42084;SDS011;27746;52.228;20.890;2023-02-08T02:34:13;31.27;;;16.85;;
42084;SDS011;27746;52.228;20.890;2023-02-08T02:36:47;29.33;;;15.75;;
42084;SDS011;27746;52.228;20.890;2023-02-08T02:39:19;31.80;;;15.20;;
42084;SDS011;27746;52.228;20.890;2023-02-08T02:41:52;27.88;;;15.30;;
42084;SDS011;27746;52.228;20.890;2023-02-08T02:44:41;27.63;;;14.75;;
42084;SDS011;27746;52.228;20.890;2023-02-08T02:47:16;36.10;;;14.80;;
42084;SDS011;27746;52.228;20.890;2023-02-08T02:49:45;31.15;;;15.98;;
42084;SDS011;27746;52.228;20.890;2023-02-08T02:52:14;33.17;;;14.98;;
42084;SDS011;27746;52.228;20.890;2023-02-08T02:54:44;26.33;;;14.90;;
42084;SDS011;27746;52.228;20.890;2023-02-08T02:57:14;29.50;;;15.10;;
42084;SDS011;27746;52.228;20.890;2023-02-08T02:59:42;29.67;;;14.20;;
42084;SDS011;27746;52.228;20.890;2023-02-08T03:02:11;24.58;;;12.57;;
42084;SDS011;27746;52.228;20.890;2023-02-08T03:10:28;31.60;;;14.70;;
42084;SDS011;27746;52.228;20.890;2023-02-08T03:12:57;26.48;;;14.63;;
42084;SDS011;27746;52.228;20.890;2023-02-08T03:15:28;32.67;;;15.10;;
42084;SDS011;27746;52.228;20.890;2023-02-08T03:18:00;32.13;;;16.67;;
42084;SDS011;27746;52.228;20.890;2023-02-08T03:20:29;31.83;;;16.90;;
42084;SDS011;27746;52.228;20.890;2023-02-08T03:22:59;32.90;;;15.70;;
42084;SDS011;27746;52.228;20.890;2023-02-08T03:25:30;36.45;;;17.20;;
42084;SDS011;27746;52.228;20.890;2023-02-08T03:28:00;36.47;;;18.52;;
42084;SDS011;27746;52.228;20.890;2023-02-08T03:30:31;33.08;;;16.90;;
42084;SDS011;27746;52.228;20.890;2023-02-08T03:33:00;35.08;;;18.08;;
42084;SDS011;27746;52.228;20.890;2023-02-08T03:35:32;34.17;;;16.05;;
42084;SDS011;27746;52.228;20.890;2023-02-08T03:38:00;29.40;;;14.95;;
42084;SDS011;27746;52.228;20.890;2023-02-08T03:40:31;33.17;;;17.42;;
42084;SDS011;27746;52.228;20.890;2023-02-08T03:43:02;29.75;;;15.05;;
42084;SDS011;27746;52.228;20.890;2023-02-08T03:45:31;34.53;;;16.80;;
42084;SDS011;27746;52.228;20.890;2023-02-08T03:47:59;39.30;;;18.48;;
42084;SDS011;27746;52.228;20.890;2023-02-08T03:50:30;35.20;;;16.00;;
42084;SDS011;27746;52.228;20.890;2023-02-08T03:53:00;37.70;;;16.75;;
42084;SDS011;27746;52.228;20.890;2023-02-08T03:55:28;30.13;;;14.88;;
42084;SDS011;27746;52.228;20.890;2023-02-08T03:57:57;30.95;;;15.93;;
42084;SDS011;27746;52.228;20.890;2023-02-08T04:00:25;34.95;;;17.30;;
42084;SDS011;27746;52.228;20.890;2023-02-08T04:02:54;33.45;;;16.08;;
42084;SDS011;27746;52.228;20.890;2023-02-08T04:05:22;38.35;;;16.02;;
42084;SDS011;27746;52.228;20.890;2023-02-08T04:07:50;35.72;;;16.83;;
42084;SDS011;27746;52.228;20.890;2023-02-08T04:10:17;41.22;;;21.90;;
42084;SDS011;27746;52.228;20.890;2023-02-08T04:12:45;34.20;;;16.80;;
42084;SDS011;27746;52.228;20.890;2023-02-08T04:15:14;31.25;;;16.48;;
42084;SDS011;27746;52.228;20.890;2023-02-08T04:17:41;28.67;;;15.88;;
42084;SDS011;27746;52.228;20.890;2023-02-08T04:20:09;28.95;;;15.55;;
42084;SDS011;27746;52.228;20.890;2023-02-08T04:22:36;33.63;;;16.60;;
42084;SDS011;27746;52.228;20.890;2023-02-08T04:25:03;31.42;;;16.05;;
42084;SDS011;27746;52.228;20.890;2023-02-08T04:27:30;28.90;;;15.43;;
42084;SDS011;27746;52.228;20.890;2023-02-08T04:29:58;33.35;;;16.45;;
42084;SDS011;27746;52.228;20.890;2023-02-08T04:32:26;31.52;;;16.92;;
42084;SDS011;27746;52.228;20.890;2023-02-08T04:34:53;30.38;;;15.35;;
42084;SDS011;27746;52.228;20.890;2023-02-08T04:37:21;38.17;;;17.13;;
42084;SDS011;27746;52.228;20.890;2023-02-08T04:39:48;35.10;;;17.35;;
42084;SDS011;27746;52.228;20.890;2023-02-08T04:42:15;29.08;;;15.85;;
42084;SDS011;27746;52.228;20.890;2023-02-08T04:44:42;30.10;;;16.08;;
42084;SDS011;27746;52.228;20.890;2023-02-08T04:47:12;35.53;;;16.55;;
42084;SDS011;27746;52.228;20.890;2023-02-08T04:49:40;31.40;;;14.25;;
42084;SDS011;27746;52.228;20.890;2023-02-08T04:52:07;28.65;;;15.70;;
42084;SDS011;27746;52.228;20.890;2023-02-08T04:54:35;39.53;;;16.77;;
42084;SDS011;27746;52.228;20.890;2023-02-08T04:57:02;34.45;;;16.27;;
42084;SDS011;27746;52.228;20.890;2023-02-08T04:59:29;28.35;;;16.25;;
42084;SDS011;27746;52.228;20.890;2023-02-08T05:01:56;33.05;;;15.30;;
42084;SDS011;27746;52.228;20.890;2023-02-08T05:04:24;34.00;;;17.45;;
42084;SDS011;27746;52.228;20.890;2023-02-08T05:06:53;33.08;;;17.65;;
42084;SDS011;27746;52.228;20.890;2023-02-08T05:09:20;33.85;;;16.25;;
42084;SDS011;27746;52.228;20.890;2023-02-08T05:11:47;34.35;;;16.00;;
42084;SDS011;27746;52.228;20.890;2023-02-08T05:14:14;37.72;;;16.58;;
42084;SDS011;27746;52.228;20.890;2023-02-08T05:16:41;32.70;;;15.07;;
42084;SDS011;27746;52.228;20.890;2023-02-08T05:19:08;30.52;;;15.43;;
42084;SDS011;27746;52.228;20.890;2023-02-08T05:21:36;35.17;;;17.40;;
42084;SDS011;27746;52.228;20.890;2023-02-08T05:24:05;33.50;;;17.77;;
42084;SDS011;27746;52.228;20.890;2023-02-08T05:26:36;33.28;;;16.58;;
42084;SDS011;27746;52.228;20.890;2023-02-08T05:29:03;36.35;;;17.05;;
42084;SDS011;27746;52.228;20.890;2023-02-08T05:31:31;33.83;;;16.52;;
42084;SDS011;27746;52.228;20.890;2023-02-08T05:33:58;36.13;;;18.45;;
42084;SDS011;27746;52.228;20.890;2023-02-08T05:36:25;41.38;;;17.92;;
42084;SDS011;27746;52.228;20.890;2023-02-08T05:38:52;30.45;;;16.23;;
42084;SDS011;27746;52.228;20.890;2023-02-08T05:41:21;35.95;;;17.75;;
42084;SDS011;27746;52.228;20.890;2023-02-08T05:43:48;35.85;;;18.30;;
42084;SDS011;27746;52.228;20.890;2023-02-08T05:46:15;35.28;;;17.88;;
42084;SDS011;27746;52.228;20.890;2023-02-08T05:48:42;30.35;;;16.95;;
42084;SDS011;27746;52.228;20.890;2023-02-08T05:51:10;36.90;;;20.70;;
42084;SDS011;27746;52.228;20.890;2023-02-08T05:53:37;36.75;;;19.10;;
42084;SDS011;27746;52.228;20.890;2023-02-08T05:56:04;36.80;;;17.85;;
42084;SDS011;27746;52.228;20.890;2023-02-08T05:58:33;35.08;;;16.90;;
42084;SDS011;27746;52.228;20.890;2023-02-08T06:01:00;30.25;;;17.17;;
42084;SDS011;27746;52.228;20.890;2023-02-08T06:03:27;31.23;;;17.30;;
42084;SDS011;27746;52.228;20.890;2023-02-08T06:05:54;36.22;;;17.42;;
42084;SDS011;27746;52.228;20.890;2023-02-08T06:08:22;31.35;;;16.52;;
42084;SDS011;27746;52.228;20.890;2023-02-08T06:10:49;32.00;;;17.40;;
42084;SDS011;27746;52.228;20.890;2023-02-08T06:13:16;31.70;;;17.73;;
42084;SDS011;27746;52.228;20.890;2023-02-08T06:15:44;32.08;;;17.50;;
42084;SDS011;27746;52.228;20.890;2023-02-08T06:18:12;35.58;;;17.98;;
42084;SDS011;27746;52.228;20.890;2023-02-08T06:20:39;36.90;;;17.95;;
42084;SDS011;27746;52.228;20.890;2023-02-08T06:23:06;40.50;;;19.17;;
42084;SDS011;27746;52.228;20.890;2023-02-08T06:25:33;36.75;;;18.80;;
42084;SDS011;27746;52.228;20.890;2023-02-08T06:28:01;44.38;;;20.58;;
42084;SDS011;27746;52.228;20.890;2023-02-08T06:30:34;35.28;;;18.58;;
42084;SDS011;27746;52.228;20.890;2023-02-08T06:33:03;48.70;;;20.90;;
42084;SDS011;27746;52.228;20.890;2023-02-08T06:35:31;37.70;;;19.55;;
42084;SDS011;27746;52.228;20.890;2023-02-08T06:37:58;37.28;;;19.13;;
42084;SDS011;27746;52.228;20.890;2023-02-08T06:40:25;40.45;;;19.23;;
42084;SDS011;27746;52.228;20.890;2023-02-08T06:42:54;41.55;;;19.08;;
42084;SDS011;27746;52.228;20.890;2023-02-08T06:45:21;38.58;;;20.35;;
42084;SDS011;27746;52.228;20.890;2023-02-08T06:47:48;44.15;;;20.85;;
42084;SDS011;27746;52.228;20.890;2023-02-08T06:50:17;43.33;;;20.35;;
42084;SDS011;27746;52.228;20.890;2023-02-08T06:52:44;40.35;;;21.48;;
42084;SDS011;27746;52.228;20.890;2023-02-08T06:55:11;40.45;;;21.88;;
42084;SDS011;27746;52.228;20.890;2023-02-08T06:57:38;42.70;;;21.30;;
42084;SDS011;27746;52.228;20.890;2023-02-08T07:00:06;38.63;;;22.30;;
42084;SDS011;27746;52.228;20.890;2023-02-08T07:02:33;45.75;;;23.52;;
42084;SDS011;27746;52.228;20.890;2023-02-08T07:05:01;45.92;;;23.55;;
42084;SDS011;27746;52.228;20.890;2023-02-08T07:07:29;45.65;;;22.35;;
42084;SDS011;27746;52.228;20.890;2023-02-08T07:09:57;50.90;;;22.52;;
42084;SDS011;27746;52.228;20.890;2023-02-08T07:12:24;43.10;;;21.63;;
42084;SDS011;27746;52.228;20.890;2023-02-08T07:14:51;47.05;;;23.20;;
42084;SDS011;27746;52.228;20.890;2023-02-08T07:17:18;47.05;;;23.80;;
42084;SDS011;27746;52.228;20.890;2023-02-08T07:19:45;53.15;;;25.00;;
42084;SDS011;27746;52.228;20.890;2023-02-08T07:22:12;45.20;;;24.48;;
42084;SDS011;27746;52.228;20.890;2023-02-08T07:24:41;46.42;;;23.92;;
42084;SDS011;27746;52.228;20.890;2023-02-08T07:27:09;57.20;;;25.15;;
42084;SDS011;27746;52.228;20.890;2023-02-08T07:29:36;49.42;;;24.05;;
42084;SDS011;27746;52.228;20.890;2023-02-08T07:32:04;47.85;;;23.70;;
42084;SDS011;27746;52.228;20.890;2023-02-08T07:34:32;45.88;;;23.33;;
42084;SDS011;27746;52.228;20.890;2023-02-08T07:37:00;42.15;;;22.05;;
42084;SDS011;27746;52.228;20.890;2023-02-08T07:39:27;46.75;;;22.45;;
42084;SDS011;27746;52.228;20.890;2023-02-08T07:41:57;44.60;;;21.90;;
42084;SDS011;27746;52.228;20.890;2023-02-08T07:44:24;42.45;;;21.27;;
42084;SDS011;27746;52.228;20.890;2023-02-08T07:46:51;42.30;;;19.65;;
42084;SDS011;27746;52.228;20.890;2023-02-08T07:49:18;47.88;;;20.65;;
42084;SDS011;27746;52.228;20.890;2023-02-08T07:51:45;40.00;;;20.92;;
42084;SDS011;27746;52.228;20.890;2023-02-08T07:54:13;42.17;;;19.52;;
42084;SDS011;27746;52.228;20.890;2023-02-08T07:56:40;41.78;;;18.88;;
42084;SDS011;27746;52.228;20.890;2023-02-08T07:59:08;40.40;;;19.95;;
42084;SDS011;27746;52.228;20.890;2023-02-08T08:01:35;43.40;;;20.88;;
42084;SDS011;27746;52.228;20.890;2023-02-08T08:04:03;41.92;;;20.45;;
42084;SDS011;27746;52.228;20.890;2023-02-08T08:06:30;36.38;;;19.70;;
42084;SDS011;27746;52.228;20.890;2023-02-08T08:08:57;40.80;;;19.98;;
42084;SDS011;27746;52.228;20.890;2023-02-08T08:11:24;39.65;;;19.75;;
42084;SDS011;27746;52.228;20.890;2023-02-08T08:13:52;42.85;;;19.85;;
42084;SDS011;27746;52.228;20.890;2023-02-08T08:16:20;34.75;;;19.00;;
42084;SDS011;27746;52.228;20.890;2023-02-08T08:18:47;35.65;;;19.20;;
42084;SDS011;27746;52.228;20.890;2023-02-08T08:21:15;41.10;;;20.13;;
42084;SDS011;27746;52.228;20.890;2023-02-08T08:23:42;37.80;;;18.83;;
42084;SDS011;27746;52.228;20.890;2023-02-08T08:26:12;41.20;;;19.95;;
42084;SDS011;27746;52.228;20.890;2023-02-08T08:28:39;47.65;;;21.13;;
42084;SDS011;27746;52.228;20.890;2023-02-08T08:31:10;43.25;;;20.52;;
42084;SDS011;27746;52.228;20.890;2023-02-08T08:33:39;39.05;;;20.00;;
42084;SDS011;27746;52.228;20.890;2023-02-08T08:36:06;40.83;;;21.60;;
42084;SDS011;27746;52.228;20.890;2023-02-08T08:38:34;42.15;;;21.15;;
42084;SDS011;27746;52.228;20.890;2023-02-08T08:41:05;46.83;;;21.90;;
42084;SDS011;27746;52.228;20.890;2023-02-08T08:43:32;43.53;;;22.88;;
42084;SDS011;27746;52.228;20.890;2023-02-08T08:45:59;45.05;;;21.35;;
42084;SDS011;27746;52.228;20.890;2023-02-08T08:48:26;43.08;;;21.92;;
42084;SDS011;27746;52.228;20.890;2023-02-08T08:50:55;42.67;;;21.88;;
42084;SDS011;27746;52.228;20.890;2023-02-08T08:53:22;48.60;;;22.05;;
42084;SDS011;27746;52.228;20.890;2023-02-08T08:55:49;47.80;;;22.85;;
42084;SDS011;27746;52.228;20.890;2023-02-08T08:58:17;47.15;;;23.00;;
42084;SDS011;27746;52.228;20.890;2023-02-08T09:00:44;48.28;;;22.65;;
42084;SDS011;27746;52.228;20.890;2023-02-08T09:03:11;44.97;;;21.27;;
42084;SDS011;27746;52.228;20.890;2023-02-08T09:05:38;40.42;;;22.00;;
42084;SDS011;27746;52.228;20.890;2023-02-08T09:08:07;46.03;;;20.55;;
42084;SDS011;27746;52.228;20.890;2023-02-08T09:10:34;44.20;;;20.48;;
42084;SDS011;27746;52.228;20.890;2023-02-08T09:13:01;40.20;;;21.05;;
42084;SDS011;27746;52.228;20.890;2023-02-08T09:15:28;41.15;;;21.63;;
42084;SDS011;27746;52.228;20.890;2023-02-08T09:17:55;38.65;;;20.52;;
42084;SDS011;27746;52.228;20.890;2023-02-08T09:20:22;44.03;;;21.25;;
42084;SDS011;27746;52.228;20.890;2023-02-08T09:22:50;44.58;;;20.92;;
42084;SDS011;27746;52.228;20.890;2023-02-08T09:25:19;40.22;;;19.67;;
42084;SDS011;27746;52.228;20.890;2023-02-08T09:27:46;43.67;;;21.38;;
42084;SDS011;27746;52.228;20.890;2023-02-08T09:30:13;42.85;;;20.70;;
42084;SDS011;27746;52.228;20.890;2023-02-08T09:32:40;39.90;;;20.40;;
42084;SDS011;27746;52.228;20.890;2023-02-08T09:35:08;45.17;;;22.27;;
42084;SDS011;27746;52.228;20.890;2023-02-08T09:37:37;42.67;;;22.00;;
42084;SDS011;27746;52.228;20.890;2023-02-08T09:40:04;46.53;;;22.23;;
42084;SDS011;27746;52.228;20.890;2023-02-08T09:42:36;39.15;;;20.95;;
42084;SDS011;27746;52.228;20.890;2023-02-08T09:45:18;42.35;;;19.95;;
42084;SDS011;27746;52.228;20.890;2023-02-08T09:47:48;39.80;;;20.52;;
42084;SDS011;27746;52.228;20.890;2023-02-08T09:50:16;45.42;;;22.23;;
42084;SDS011;27746;52.228;20.890;2023-02-08T09:52:46;43.47;;;22.13;;
42084;SDS011;27746;52.228;20.890;2023-02-08T09:55:20;46.75;;;23.95;;
42084;SDS011;27746;52.228;20.890;2023-02-08T09:57:52;46.45;;;22.33;;
42084;SDS011;27746;52.228;20.890;2023-02-08T10:00:22;47.35;;;21.90;;
42084;SDS011;27746;52.228;20.890;2023-02-08T10:02:51;42.20;;;21.88;;
42084;SDS011;27746;52.228;20.890;2023-02-08T10:05:20;44.60;;;23.50;;
42084;SDS011;27746;52.228;20.890;2023-02-08T10:07:48;39.03;;;22.20;;
42084;SDS011;27746;52.228;20.890;2023-02-08T10:10:17;42.92;;;23.02;;
42084;SDS011;27746;52.228;20.890;2023-02-08T10:12:48;45.92;;;20.42;;
42084;SDS011;27746;52.228;20.890;2023-02-08T10:15:24;45.42;;;23.05;;
42084;SDS011;27746;52.228;20.890;2023-02-08T10:18:13;41.67;;;20.10;;
42084;SDS011;27746;52.228;20.890;2023-02-08T10:20:49;45.97;;;23.15;;
42084;SDS011;27746;52.228;20.890;2023-02-08T10:23:21;43.63;;;20.75;;
42084;SDS011;27746;52.228;20.890;2023-02-08T10:26:05;43.55;;;21.55;;
42084;SDS011;27746;52.228;20.890;2023-02-08T10:28:42;40.95;;;19.98;;
42084;SDS011;27746;52.228;20.890;2023-02-08T10:31:15;49.05;;;22.05;;
42084;SDS011;27746;52.228;20.890;2023-02-08T10:33:46;42.30;;;21.60;;
42084;SDS011;27746;52.228;20.890;2023-02-08T10:36:17;40.08;;;19.65;;
42084;SDS011;27746;52.228;20.890;2023-02-08T10:38:46;40.50;;;19.75;;
42084;SDS011;27746;52.228;20.890;2023-02-08T10:41:16;43.30;;;21.25;;
42084;SDS011;27746;52.228;20.890;2023-02-08T10:43:44;42.92;;;18.67;;
42084;SDS011;27746;52.228;20.890;2023-02-08T10:46:19;37.00;;;19.08;;
42084;SDS011;27746;52.228;20.890;2023-02-08T10:48:51;42.25;;;19.90;;
42084;SDS011;27746;52.228;20.890;2023-02-08T10:51:23;40.03;;;20.35;;
42084;SDS011;27746;52.228;20.890;2023-02-08T10:53:50;44.72;;;21.23;;
42084;SDS011;27746;52.228;20.890;2023-02-08T10:56:22;41.25;;;20.27;;
42084;SDS011;27746;52.228;20.890;2023-02-08T10:58:54;40.97;;;20.05;;
42084;SDS011;27746;52.228;20.890;2023-02-08T11:01:23;38.88;;;19.83;;
42084;SDS011;27746;52.228;20.890;2023-02-08T11:04:00;44.67;;;20.80;;
42084;SDS011;27746;52.228;20.890;2023-02-08T11:06:27;35.63;;;18.58;;
42084;SDS011;27746;52.228;20.890;2023-02-08T11:08:55;35.45;;;18.95;;
42084;SDS011;27746;52.228;20.890;2023-02-08T11:11:23;34.80;;;17.98;;
42084;SDS011;27746;52.228;20.890;2023-02-08T11:13:51;32.40;;;17.38;;
42084;SDS011;27746;52.228;20.890;2023-02-08T11:16:20;34.50;;;18.77;;
42084;SDS011;27746;52.228;20.890;2023-02-08T11:18:50;39.85;;;18.00;;
42084;SDS011;27746;52.228;20.890;2023-02-08T11:21:21;35.10;;;18.08;;
42084;SDS011;27746;52.228;20.890;2023-02-08T11:23:49;39.08;;;19.02;;
42084;SDS011;27746;52.228;20.890;2023-02-08T11:26:18;36.90;;;18.58;;
42084;SDS011;27746;52.228;20.890;2023-02-08T11:28:57;39.65;;;20.48;;
42084;SDS011;27746;52.228;20.890;2023-02-08T11:31:24;42.47;;;18.70;;
42084;SDS011;27746;52.228;20.890;2023-02-08T11:34:00;34.88;;;17.20;;
42084;SDS011;27746;52.228;20.890;2023-02-08T11:36:28;32.75;;;14.77;;
42084;SDS011;27746;52.228;20.890;2023-02-08T11:38:56;24.65;;;12.45;;
42084;SDS011;27746;52.228;20.890;2023-02-08T11:41:23;19.80;;;8.43;;
42084;SDS011;27746;52.228;20.890;2023-02-08T11:43:58;14.73;;;7.45;;
42084;SDS011;27746;52.228;20.890;2023-02-08T11:46:26;10.23;;;5.65;;
42084;SDS011;27746;52.228;20.890;2023-02-08T11:48:54;11.70;;;5.50;;
42084;SDS011;27746;52.228;20.890;2023-02-08T11:51:27;13.63;;;6.63;;
42084;SDS011;27746;52.228;20.890;2023-02-08T11:56:22;15.32;;;7.68;;
42084;SDS011;27746;52.228;20.890;2023-02-08T11:58:55;15.82;;;7.50;;
42084;SDS011;27746;52.228;20.890;2023-02-08T12:01:24;13.35;;;7.22;;
42084;SDS011;27746;52.228;20.890;2023-02-08T12:03:53;15.70;;;7.68;;
42084;SDS011;27746;52.228;20.890;2023-02-08T12:06:24;18.95;;;9.90;;
42084;SDS011;27746;52.228;20.890;2023-02-08T12:08:57;22.92;;;10.40;;
42084;SDS011;27746;52.228;20.890;2023-02-08T12:11:27;19.52;;;10.45;;
42084;SDS011;27746;52.228;20.890;2023-02-08T12:14:08;16.13;;;9.55;;
42084;SDS011;27746;52.228;20.890;2023-02-08T12:16:48;18.83;;;10.02;;
42084;SDS011;27746;52.228;20.890;2023-02-08T12:22:15;17.38;;;7.93;;
42084;SDS011;27746;52.228;20.890;2023-02-08T12:24:46;13.38;;;6.18;;
42084;SDS011;27746;52.228;20.890;2023-02-08T12:27:25;10.77;;;5.53;;
42084;SDS011;27746;52.228;20.890;2023-02-08T12:29:58;12.38;;;5.03;;
42084;SDS011;27746;52.228;20.890;2023-02-08T12:32:33;9.95;;;5.10;;
42084;SDS011;27746;52.228;20.890;2023-02-08T12:35:12;8.30;;;4.50;;
42084;SDS011;27746;52.228;20.890;2023-02-08T12:37:44;8.10;;;3.60;;
42084;SDS011;27746;52.228;20.890;2023-02-08T12:40:33;8.30;;;3.45;;
42084;SDS011;27746;52.228;20.890;2023-02-08T12:43:22;6.07;;;3.00;;
42084;SDS011;27746;52.228;20.890;2023-02-08T12:45:56;9.73;;;3.55;;
42084;SDS011;27746;52.228;20.890;2023-02-08T12:48:27;6.82;;;3.53;;
42084;SDS011;27746;52.228;20.890;2023-02-08T12:50:59;7.17;;;3.53;;
42084;SDS011;27746;52.228;20.890;2023-02-08T12:53:29;11.05;;;4.53;;
42084;SDS011;27746;52.228;20.890;2023-02-08T12:56:01;8.82;;;3.80;;
42084;SDS011;27746;52.228;20.890;2023-02-08T12:58:30;7.80;;;3.60;;
42084;SDS011;27746;52.228;20.890;2023-02-08T13:01:00;7.60;;;3.42;;
42084;SDS011;27746;52.228;20.890;2023-02-08T13:03:30;11.07;;;3.40;;
42084;SDS011;27746;52.228;20.890;2023-02-08T13:06:00;8.35;;;3.63;;
42084;SDS011;27746;52.228;20.890;2023-02-08T13:08:29;7.93;;;3.20;;
42084;SDS011;27746;52.228;20.890;2023-02-08T13:10:59;8.35;;;3.45;;
42084;SDS011;27746;52.228;20.890;2023-02-08T13:13:28;7.68;;;4.22;;
42084;SDS011;27746;52.228;20.890;2023-02-08T13:15:57;7.85;;;4.10;;
42084;SDS011;27746;52.228;20.890;2023-02-08T13:18:27;6.43;;;3.60;;
42084;SDS011;27746;52.228;20.890;2023-02-08T13:20:57;7.60;;;3.55;;
42084;SDS011;27746;52.228;20.890;2023-02-08T13:23:25;7.78;;;3.53;;
42084;SDS011;27746;52.228;20.890;2023-02-08T13:25:54;6.00;;;3.13;;
42084;SDS011;27746;52.228;20.890;2023-02-08T13:28:23;8.35;;;3.63;;
42084;SDS011;27746;52.228;20.890;2023-02-08T13:30:53;7.13;;;3.65;;
42084;SDS011;27746;52.228;20.890;2023-02-08T13:33:23;6.95;;;4.15;;
42084;SDS011;27746;52.228;20.890;2023-02-08T13:35:52;9.13;;;3.70;;
42084;SDS011;27746;52.228;20.890;2023-02-08T13:38:23;9.93;;;4.53;;
42084;SDS011;27746;52.228;20.890;2023-02-08T13:41:00;7.68;;;4.55;;
42084;SDS011;27746;52.228;20.890;2023-02-08T13:43:28;11.20;;;4.97;;
42084;SDS011;27746;52.228;20.890;2023-02-08T13:46:00;9.07;;;4.82;;
42084;SDS011;27746;52.228;20.890;2023-02-08T13:48:30;10.23;;;5.70;;
42084;SDS011;27746;52.228;20.890;2023-02-08T13:51:08;7.25;;;4.95;;
42084;SDS011;27746;52.228;20.890;2023-02-08T13:56:42;10.15;;;4.72;;
42084;SDS011;27746;52.228;20.890;2023-02-08T13:59:26;9.82;;;4.88;;
42084;SDS011;27746;52.228;20.890;2023-02-08T14:04:43;9.63;;;5.57;;
42084;SDS011;27746;52.228;20.890;2023-02-08T14:07:15;10.80;;;5.32;;
42084;SDS011;27746;52.228;20.890;2023-02-08T14:09:47;11.10;;;5.75;;
42084;SDS011;27746;52.228;20.890;2023-02-08T14:12:19;8.32;;;5.55;;
42084;SDS011;27746;52.228;20.890;2023-02-08T14:17:29;11.00;;;5.68;;
42084;SDS011;27746;52.228;20.890;2023-02-08T14:19:58;11.57;;;6.22;;
42084;SDS011;27746;52.228;20.890;2023-02-08T14:22:27;15.55;;;6.75;;
42084;SDS011;27746;52.228;20.890;2023-02-08T14:25:02;16.85;;;8.07;;
42084;SDS011;27746;52.228;20.890;2023-02-08T14:27:31;16.08;;;7.22;;
42084;SDS011;27746;52.228;20.890;2023-02-08T14:30:00;15.85;;;7.75;;
42084;SDS011;27746;52.228;20.890;2023-02-08T14:32:29;18.58;;;9.02;;
42084;SDS011;27746;52.228;20.890;2023-02-08T14:34:59;22.10;;;8.40;;
42084;SDS011;27746;52.228;20.890;2023-02-08T14:37:29;16.10;;;7.75;;
42084;SDS011;27746;52.228;20.890;2023-02-08T14:42:53;15.52;;;7.05;;
42084;SDS011;27746;52.228;20.890;2023-02-08T14:45:25;16.33;;;8.63;;
42084;SDS011;27746;52.228;20.890;2023-02-08T14:48:03;18.02;;;6.90;;
42084;SDS011;27746;52.228;20.890;2023-02-08T14:50:39;15.63;;;8.68;;
42084;SDS011;27746;52.228;20.890;2023-02-08T14:53:15;14.60;;;7.18;;